Arboles, Colorado
Current Conditions -  °F | °C
As of 6:03 PM on Wednesday 17 Dec 2014 (Local Time) from KDRO Reporting Station
Light Snow Light Snow  
Wind Chill: -3°   Ceiling: 800
Heat Index:   Visibility: 5mi
Dew Point: -1°   Wind: 6mph
Humidity: 96%   Direction: 240°WSW
Pressure: 29.99"   Gusts: NA
Location:  37.03°N, 107.42°W
Report Text: KDRO 180103Z AUTO 24005KT 5SM -SN BR FEW004 BKN008 OVC019 00/M01 A2999 RMK AO2 P0000 T00001006
Loading
Personal Weather Stations






























Interactive Weather Map New forecast layout! Learn more

10-Day Weather Forecast

Advertisements
Track Severe Weather on mobile